createdAt,value
2023-10-19T00:00:22.958Z,7.22
2023-10-19T00:02:57.026Z,7.75
2023-10-19T00:08:08.715Z,5.70
2023-10-19T00:10:44.034Z,6.03
2023-10-19T00:13:20.336Z,8.23
2023-10-19T00:15:54.891Z,7.15
2023-10-19T00:18:28.374Z,8.07
2023-10-19T00:21:00.972Z,8.20
2023-10-19T00:23:34.476Z,5.63
2023-10-19T00:26:10.101Z,5.63
2023-10-19T00:28:50.673Z,7.05
2023-10-19T00:31:25.956Z,6.22
2023-10-19T00:33:59.560Z,5.65
2023-10-19T00:36:33.199Z,6.38
2023-10-19T00:39:15.980Z,6.43
2023-10-19T00:41:49.728Z,6.10
2023-10-19T00:44:33.414Z,5.25
2023-10-19T00:47:13.732Z,6.68
2023-10-19T00:49:48.383Z,6.43
2023-10-19T00:52:24.672Z,7.28
2023-10-19T00:55:00.120Z,8.27
2023-10-19T00:57:35.793Z,9.15
2023-10-19T01:00:13.726Z,5.97
2023-10-19T01:02:48.625Z,6.15
2023-10-19T01:05:23.872Z,5.75
2023-10-19T01:07:58.574Z,5.57
2023-10-19T01:10:33.283Z,5.45
2023-10-19T01:13:07.139Z,5.30
2023-10-19T01:15:42.170Z,5.30
2023-10-19T01:18:18.031Z,4.53
2023-10-19T01:20:53.133Z,5.88
2023-10-19T01:23:30.522Z,7.10
2023-10-19T01:26:06.981Z,8.30
2023-10-19T01:28:49.848Z,4.38
2023-10-19T01:31:39.774Z,6.03
2023-10-19T01:34:13.597Z,2.65
2023-10-19T01:36:46.802Z,2.90
2023-10-19T01:39:20.258Z,4.28
2023-10-19T01:41:53.619Z,7.45
2023-10-19T01:44:26.807Z,2.83
2023-10-19T01:47:02.250Z,4.18
2023-10-19T01:49:34.653Z,5.55
2023-10-19T01:52:07.940Z,6.72
2023-10-19T01:54:41.382Z,3.42
2023-10-19T01:57:15.974Z,4.35
2023-10-19T01:59:48.345Z,5.22
2023-10-19T02:02:23.107Z,3.72
2023-10-19T02:04:57.181Z,2.10
2023-10-19T02:07:30.518Z,5.75
2023-10-19T02:10:05.016Z,3.03
2023-10-19T02:12:38.837Z,3.72
2023-10-19T02:15:10.797Z,3.20
2023-10-19T02:17:45.745Z,4.20
2023-10-19T02:20:33.817Z,2.30
2023-10-19T02:23:12.783Z,3.00
2023-10-19T02:25:47.101Z,3.60
2023-10-19T02:28:30.380Z,2.92
2023-10-19T02:33:53.339Z,3.05
2023-10-19T02:36:29.370Z,5.03
2023-10-19T02:39:09.082Z,3.92
2023-10-19T02:41:45.283Z,2.45
2023-10-19T02:44:23.501Z,2.58
2023-10-19T02:47:01.067Z,4.00
2023-10-19T02:49:39.622Z,2.33
2023-10-19T02:52:15.089Z,3.03
2023-10-19T02:54:48.419Z,4.03
2023-10-19T02:57:23.260Z,2.38
2023-10-19T02:59:55.448Z,2.97
2023-10-19T03:02:29.644Z,4.18
2023-10-19T03:05:02.594Z,2.17
2023-10-19T03:07:35.916Z,4.40
2023-10-19T03:10:08.789Z,5.00
2023-10-19T03:12:44.276Z,2.97
2023-10-19T03:15:16.728Z,2.33
2023-10-19T03:17:50.666Z,5.20
2023-10-19T03:20:25.365Z,5.88
2023-10-19T03:23:02.283Z,1.75
2023-10-19T03:26:18.420Z,2.90
2023-10-19T03:28:56.384Z,3.25
2023-10-19T03:31:29.954Z,2.65
2023-10-19T03:34:06.588Z,1.50
2023-10-19T03:36:40.471Z,4.88
2023-10-19T03:39:14.471Z,5.05
2023-10-19T03:41:53.997Z,5.25
2023-10-19T03:44:40.018Z,3.90
2023-10-19T03:47:15.718Z,3.22
2023-10-19T03:49:50.056Z,2.60
2023-10-19T03:52:23.668Z,4.35
2023-10-19T03:54:58.779Z,5.93
2023-10-19T03:57:32.533Z,5.07
2023-10-19T04:00:17.381Z,4.75
2023-10-19T04:02:54.703Z,2.25
2023-10-19T04:05:29.867Z,4.30
2023-10-19T04:08:10.692Z,7.78
2023-10-19T04:10:48.729Z,5.35
2023-10-19T04:13:22.776Z,4.93
2023-10-19T04:15:57.295Z,5.40
2023-10-19T04:18:31.128Z,5.75
2023-10-19T04:21:04.492Z,6.85
2023-10-19T04:23:38.146Z,6.70
2023-10-19T04:26:13.053Z,5.65
2023-10-19T04:28:51.998Z,5.63
2023-10-19T04:31:26.638Z,4.15
2023-10-19T04:33:59.712Z,5.10
2023-10-19T04:39:13.037Z,6.18
2023-10-19T04:41:48.334Z,4.35
2023-10-19T04:44:21.563Z,5.30
2023-10-19T04:46:56.382Z,6.65
2023-10-19T04:49:30.659Z,6.95
2023-10-19T04:52:04.640Z,7.60
2023-10-19T04:54:38.744Z,4.68
2023-10-19T04:57:12.050Z,4.60
2023-10-19T04:59:46.657Z,7.63
2023-10-19T05:02:21.380Z,6.75
2023-10-19T05:04:55.039Z,6.53
2023-10-19T05:07:28.333Z,5.93
2023-10-19T05:10:04.399Z,3.15
2023-10-19T05:12:38.182Z,5.18
2023-10-19T05:15:12.549Z,6.88
2023-10-19T05:17:47.077Z,6.78
2023-10-19T05:20:22.450Z,4.13
2023-10-19T05:22:56.016Z,3.42
2023-10-19T05:25:29.359Z,8.80
2023-10-19T05:28:02.460Z,3.05
2023-10-19T05:33:10.614Z,4.95
2023-10-19T05:35:44.729Z,8.15
2023-10-19T05:38:17.934Z,4.07
2023-10-19T05:40:53.467Z,6.95
2023-10-19T05:43:26.666Z,5.55
2023-10-19T05:45:59.564Z,3.58
2023-10-19T05:48:33.954Z,7.43
2023-10-19T05:51:07.286Z,5.80
2023-10-19T05:53:40.416Z,5.88
2023-10-19T05:56:13.563Z,5.57
2023-10-19T05:58:49.940Z,5.57
2023-10-19T06:01:23.389Z,6.47
2023-10-19T06:03:58.045Z,8.15
2023-10-19T06:06:31.193Z,9.23
2023-10-19T06:09:05.827Z,7.47
2023-10-19T06:11:43.776Z,4.55
2023-10-19T06:14:16.974Z,7.90
2023-10-19T06:16:50.272Z,4.28
2023-10-19T06:19:24.715Z,6.93
2023-10-19T06:21:57.818Z,4.32
2023-10-19T06:27:05.160Z,7.00
2023-10-19T06:29:38.154Z,8.15
2023-10-19T06:34:45.937Z,6.20
2023-10-19T06:37:19.459Z,8.32
2023-10-19T06:39:55.219Z,3.60
2023-10-19T06:42:28.404Z,6.78
2023-10-19T06:45:01.393Z,7.35
2023-10-19T06:47:38.397Z,5.82
2023-10-19T06:50:14.582Z,4.03
2023-10-19T06:52:49.152Z,5.22
2023-10-19T06:55:22.679Z,6.32
2023-10-19T06:57:56.923Z,4.93
2023-10-19T07:00:29.883Z,4.63
2023-10-19T07:05:38.134Z,5.47
2023-10-19T07:08:11.240Z,9.88
2023-10-19T07:15:51.402Z,6.70
2023-10-19T07:18:24.888Z,5.22
2023-10-19T07:21:04.384Z,4.55
2023-10-19T07:23:39.169Z,5.88
2023-10-19T07:26:12.820Z,5.95
2023-10-19T07:28:45.854Z,7.68
2023-10-19T07:33:51.963Z,7.38
2023-10-19T07:36:26.096Z,5.03
2023-10-19T07:38:58.848Z,6.97
2023-10-19T07:41:37.581Z,3.88
2023-10-19T07:44:10.671Z,4.20
2023-10-19T07:49:16.677Z,4.70
2023-10-19T07:54:24.145Z,6.88
2023-10-19T07:56:58.775Z,9.32
2023-10-19T07:59:32.350Z,8.68
2023-10-19T08:02:05.600Z,6.65
2023-10-19T08:04:38.844Z,7.93
2023-10-19T08:07:13.087Z,6.70
2023-10-19T08:09:46.711Z,5.65
2023-10-19T08:12:24.004Z,7.55
2023-10-19T08:14:57.700Z,5.30
2023-10-19T08:17:31.023Z,7.88
2023-10-19T08:20:05.010Z,8.38
2023-10-19T08:22:39.385Z,10.98
2023-10-19T08:25:13.919Z,8.82
2023-10-19T08:27:50.864Z,10.23
2023-10-19T08:30:26.378Z,7.93
2023-10-19T08:33:00.894Z,6.50
2023-10-19T08:38:12.755Z,8.70
2023-10-19T08:40:47.065Z,7.60
2023-10-19T08:43:20.535Z,7.47
2023-10-19T08:45:53.315Z,7.22
2023-10-19T08:48:26.929Z,8.35
2023-10-19T08:51:00.604Z,7.18
2023-10-19T08:53:40.690Z,10.30
2023-10-19T08:56:13.900Z,10.55
2023-10-19T08:58:47.229Z,7.00
2023-10-19T09:01:25.104Z,11.88
2023-10-19T09:03:59.605Z,8.98
2023-10-19T09:06:32.770Z,7.05
2023-10-19T09:09:10.868Z,7.47
2023-10-19T09:11:44.290Z,13.70
2023-10-19T09:14:18.959Z,8.90
2023-10-19T09:16:58.704Z,7.05
2023-10-19T09:19:39.187Z,4.70
2023-10-19T09:22:19.493Z,11.98
2023-10-19T09:24:55.344Z,13.07
2023-10-19T09:27:28.129Z,11.95
2023-10-19T09:30:02.362Z,13.63
2023-10-19T09:32:35.734Z,9.95
2023-10-19T09:35:12.057Z,11.60
2023-10-19T09:37:45.161Z,13.95
2023-10-19T09:40:20.896Z,10.00
2023-10-19T09:42:59.017Z,14.15
2023-10-19T09:45:34.413Z,11.10
2023-10-19T09:48:10.242Z,11.65
2023-10-19T09:50:43.622Z,14.10
2023-10-19T09:53:17.064Z,9.05
2023-10-19T09:55:53.573Z,7.28
2023-10-19T09:58:31.549Z,13.93
2023-10-19T10:01:05.094Z,8.40
2023-10-19T10:03:49.058Z,12.85
2023-10-19T10:06:30.415Z,14.52
2023-10-19T10:09:04.767Z,12.23
2023-10-19T10:11:39.323Z,12.18
2023-10-19T10:14:26.456Z,16.95
2023-10-19T10:17:03.130Z,13.52
2023-10-19T10:19:36.049Z,10.88
2023-10-19T10:22:13.324Z,8.95
2023-10-19T10:24:47.240Z,11.68
2023-10-19T10:27:21.939Z,14.40
2023-10-19T10:29:59.657Z,10.30
2023-10-19T10:32:48.929Z,8.18
2023-10-19T10:35:55.972Z,13.98
2023-10-19T10:38:36.533Z,12.38
2023-10-19T10:41:12.824Z,12.35
2023-10-19T10:43:55.102Z,7.82
2023-10-19T10:46:30.286Z,8.83
2023-10-19T10:49:03.636Z,10.15
2023-10-19T10:51:36.541Z,11.02
2023-10-19T10:56:43.654Z,7.80
2023-10-19T10:59:18.767Z,6.78
2023-10-19T11:01:52.398Z,10.52
2023-10-19T11:04:25.558Z,7.55
2023-10-19T11:06:59.855Z,12.48
2023-10-19T11:09:45.845Z,8.50
2023-10-19T11:12:20.342Z,6.90
2023-10-19T11:14:55.798Z,9.05
2023-10-19T11:17:31.811Z,7.93
2023-10-19T11:20:20.139Z,21.90
2023-10-19T11:22:56.912Z,28.00
2023-10-19T11:25:32.053Z,12.00
2023-10-19T11:28:19.115Z,16.55
2023-10-19T11:30:57.505Z,14.27
2023-10-19T11:33:31.079Z,10.10
2023-10-19T11:36:03.839Z,11.05
2023-10-19T11:38:37.320Z,8.98
2023-10-19T11:41:10.394Z,12.70
2023-10-19T11:43:46.033Z,14.02
2023-10-19T11:46:22.937Z,12.90
2023-10-19T11:48:55.966Z,12.38
2023-10-19T11:54:02.202Z,16.17
2023-10-19T11:56:36.053Z,11.02
2023-10-19T11:59:09.540Z,7.57
2023-10-19T12:01:44.274Z,12.45
2023-10-19T12:04:20.221Z,11.23
2023-10-19T12:06:54.346Z,10.02
2023-10-19T12:09:27.271Z,13.90
2023-10-19T12:12:06.769Z,10.93
2023-10-19T12:14:39.842Z,5.45
2023-10-19T12:17:14.091Z,12.05
2023-10-19T12:19:47.105Z,9.50
2023-10-19T12:24:59.923Z,13.52
2023-10-19T12:27:32.591Z,6.63
2023-10-19T12:30:21.578Z,9.30
2023-10-19T12:32:56.400Z,5.88
2023-10-19T12:35:45.673Z,7.95
2023-10-19T12:38:18.909Z,8.95
2023-10-19T12:40:52.740Z,11.70
2023-10-19T12:43:26.438Z,13.07
2023-10-19T12:45:59.965Z,13.65
2023-10-19T12:48:37.180Z,12.57
2023-10-19T12:51:12.814Z,10.30
2023-10-19T12:53:47.329Z,14.20
2023-10-19T12:56:25.940Z,10.13
2023-10-19T12:59:00.841Z,8.45
2023-10-19T13:01:36.718Z,11.00
2023-10-19T13:04:17.824Z,11.82
2023-10-19T13:06:51.019Z,13.95
2023-10-19T13:12:09.114Z,10.75
2023-10-19T13:14:45.355Z,11.82
2023-10-19T13:17:21.111Z,7.00
2023-10-19T13:20:00.091Z,14.50
2023-10-19T13:22:35.027Z,11.30
2023-10-19T13:25:10.541Z,6.65
2023-10-19T13:27:43.822Z,11.40
2023-10-19T13:30:16.731Z,11.63
2023-10-19T13:32:50.482Z,8.10
2023-10-19T13:35:31.528Z,9.40
2023-10-19T13:38:09.085Z,14.20
2023-10-19T13:40:46.208Z,13.48
2023-10-19T13:43:22.647Z,11.18
2023-10-19T13:45:58.142Z,8.82
2023-10-19T13:48:31.034Z,9.98
2023-10-19T13:53:48.212Z,7.38
2023-10-19T13:56:21.201Z,9.05
2023-10-19T14:01:30.793Z,11.88
2023-10-19T14:04:04.239Z,8.85
2023-10-19T14:06:43.282Z,12.52
2023-10-19T14:09:18.497Z,9.25
2023-10-19T14:11:55.143Z,9.15
2023-10-19T14:14:28.045Z,10.00
2023-10-19T14:19:34.775Z,10.10
2023-10-19T14:22:09.437Z,11.07
2023-10-19T14:24:42.911Z,8.85
2023-10-19T14:27:17.955Z,10.27
2023-10-19T14:29:51.394Z,11.77
2023-10-19T14:32:28.190Z,11.80
2023-10-19T14:35:02.620Z,9.10
2023-10-19T14:37:37.124Z,10.60
2023-10-19T14:40:15.919Z,8.68
2023-10-19T14:42:55.315Z,14.73
2023-10-19T14:45:33.729Z,9.02
2023-10-19T14:48:09.901Z,6.70
2023-10-19T14:50:48.391Z,9.02
2023-10-19T14:53:23.321Z,10.88
2023-10-19T14:55:59.552Z,9.32
2023-10-19T14:58:32.790Z,8.45
2023-10-19T15:01:07.706Z,9.45
2023-10-19T15:03:40.760Z,9.80
2023-10-19T15:08:49.788Z,8.30
2023-10-19T15:11:23.324Z,10.90
2023-10-19T15:13:56.278Z,9.77
2023-10-19T15:19:01.834Z,10.10
2023-10-19T15:24:09.318Z,5.57
2023-10-19T15:26:42.227Z,9.52
2023-10-19T15:29:15.038Z,8.23
2023-10-19T15:31:48.824Z,6.85
2023-10-19T15:34:22.461Z,5.38
2023-10-19T15:36:55.960Z,4.55
2023-10-19T15:39:30.669Z,6.88
2023-10-19T15:42:05.281Z,8.38
2023-10-19T15:44:38.508Z,7.50
2023-10-19T15:47:13.348Z,8.65
2023-10-19T15:49:50.683Z,6.47
2023-10-19T15:52:24.573Z,6.03
2023-10-19T15:54:59.625Z,6.40
2023-10-19T15:57:34.837Z,6.65
2023-10-19T16:00:15.542Z,6.07
2023-10-19T16:02:49.209Z,5.15
2023-10-19T16:05:22.557Z,3.80
2023-10-19T16:07:56.093Z,4.80
2023-10-19T16:10:30.760Z,5.47
2023-10-19T16:13:04.317Z,8.38
2023-10-19T16:15:37.546Z,7.03
2023-10-19T16:18:12.605Z,5.85
2023-10-19T16:20:46.098Z,9.70
2023-10-19T16:23:19.845Z,7.35
2023-10-19T16:26:04.251Z,6.43
2023-10-19T16:28:37.732Z,5.07
2023-10-19T16:33:46.177Z,8.85
2023-10-19T16:36:19.425Z,4.93
2023-10-19T16:38:53.256Z,7.70
2023-10-19T16:41:28.094Z,6.32
2023-10-19T16:44:01.113Z,7.03
2023-10-19T16:46:34.834Z,6.55
2023-10-19T16:49:08.487Z,3.75
2023-10-19T16:51:45.122Z,8.25
2023-10-19T16:54:18.847Z,5.20
2023-10-19T16:56:53.417Z,5.57
2023-10-19T16:59:28.196Z,5.70
2023-10-19T17:02:02.808Z,5.60
2023-10-19T17:04:37.071Z,8.82
2023-10-19T17:07:10.766Z,8.98
2023-10-19T17:09:44.959Z,3.88
2023-10-19T17:12:20.018Z,8.63
2023-10-19T17:14:53.744Z,6.13
2023-10-19T17:17:28.086Z,9.00
2023-10-19T17:20:01.453Z,4.80
2023-10-19T17:22:34.599Z,4.47
2023-10-19T17:25:09.189Z,6.05
2023-10-19T17:27:43.838Z,8.55
2023-10-19T17:30:16.780Z,6.05
2023-10-19T17:35:27.942Z,4.90
2023-10-19T17:38:01.334Z,10.63
2023-10-19T17:40:34.865Z,6.60
2023-10-19T17:43:10.669Z,5.97
2023-10-19T17:45:47.928Z,4.43
2023-10-19T17:48:21.257Z,5.07
2023-10-19T17:50:55.284Z,5.95
2023-10-19T17:53:29.131Z,7.15
2023-10-19T17:56:02.456Z,5.10
2023-10-19T17:58:37.858Z,5.10
2023-10-19T18:01:12.374Z,7.13
2023-10-19T18:03:46.158Z,7.57
2023-10-19T18:06:19.481Z,4.57
2023-10-19T18:08:52.653Z,3.78
2023-10-19T18:11:27.217Z,5.55
2023-10-19T18:14:02.268Z,4.38
2023-10-19T18:16:35.927Z,4.78
2023-10-19T18:19:10.552Z,5.40
2023-10-19T18:21:43.709Z,3.88
2023-10-19T18:24:17.036Z,7.15
2023-10-19T18:26:50.273Z,5.38
2023-10-19T18:29:24.888Z,3.10
2023-10-19T18:31:58.451Z,5.90
2023-10-19T18:34:32.122Z,3.00
2023-10-19T18:37:05.011Z,4.22
2023-10-19T18:39:38.306Z,3.47
2023-10-19T18:42:12.660Z,4.55
2023-10-19T18:44:47.020Z,4.88
2023-10-19T18:47:20.079Z,6.35
2023-10-19T18:49:55.532Z,3.05
2023-10-19T18:52:28.937Z,4.15
2023-10-19T18:55:02.413Z,4.05
2023-10-19T18:57:36.611Z,4.15
2023-10-19T19:00:13.152Z,4.70
2023-10-19T19:02:47.005Z,6.07
2023-10-19T19:05:20.516Z,3.85
2023-10-19T19:07:54.364Z,6.53
2023-10-19T19:10:34.244Z,6.05
2023-10-19T19:13:08.204Z,4.22
2023-10-19T19:15:42.890Z,4.60
2023-10-19T19:18:16.921Z,3.85
2023-10-19T19:20:50.243Z,3.88
2023-10-19T19:23:23.771Z,5.07
2023-10-19T19:25:57.167Z,3.83
2023-10-19T19:28:34.189Z,4.45
2023-10-19T19:31:09.223Z,4.38
2023-10-19T19:33:42.693Z,4.45
2023-10-19T19:36:16.820Z,7.47
2023-10-19T19:38:50.634Z,4.13
2023-10-19T19:41:24.769Z,6.50
2023-10-19T19:43:58.268Z,4.85
2023-10-19T19:46:33.494Z,6.13
2023-10-19T19:49:07.020Z,4.75
2023-10-19T19:51:40.282Z,4.43
2023-10-19T19:54:13.575Z,5.28
2023-10-19T19:56:47.757Z,8.65
2023-10-19T19:59:22.480Z,4.78
2023-10-19T20:01:57.208Z,4.75
2023-10-19T20:04:30.988Z,3.63
2023-10-19T20:07:04.467Z,6.35
2023-10-19T20:09:37.770Z,5.00
2023-10-19T20:12:11.635Z,4.20
2023-10-19T20:14:44.514Z,3.65
2023-10-19T20:17:19.038Z,4.57
2023-10-19T20:19:52.500Z,6.90
2023-10-19T20:22:27.540Z,3.95
2023-10-19T20:25:02.455Z,6.20
2023-10-19T20:27:35.946Z,4.47
2023-10-19T20:30:13.727Z,5.57
2023-10-19T20:32:48.936Z,5.25
2023-10-19T20:35:27.764Z,4.70
2023-10-19T20:38:01.822Z,4.05
2023-10-19T20:40:38.396Z,3.45
2023-10-19T20:43:12.557Z,4.75
2023-10-19T20:45:46.164Z,5.35
2023-10-19T20:48:21.083Z,5.22
2023-10-19T20:50:54.652Z,5.00
2023-10-19T20:53:28.178Z,5.65
2023-10-19T20:56:02.250Z,3.50
2023-10-19T20:58:35.769Z,4.35
2023-10-19T21:01:09.716Z,5.22
2023-10-19T21:03:48.223Z,5.25
2023-10-19T21:06:21.957Z,6.30
2023-10-19T21:08:55.115Z,5.57
2023-10-19T21:14:02.819Z,4.93
2023-10-19T21:16:36.542Z,4.55
2023-10-19T21:19:22.377Z,4.60
2023-10-19T21:25:05.123Z,5.50
2023-10-19T21:27:38.316Z,7.90
2023-10-19T21:30:14.355Z,5.70
2023-10-19T21:32:48.678Z,5.70
2023-10-19T21:35:23.207Z,4.25
2023-10-19T21:37:56.299Z,3.38
2023-10-19T21:40:29.755Z,4.38
2023-10-19T21:43:03.727Z,6.55
2023-10-19T21:45:37.372Z,6.05
2023-10-19T21:48:10.929Z,6.22
2023-10-19T21:50:46.541Z,7.05
2023-10-19T21:53:20.562Z,5.28
2023-10-19T21:55:55.242Z,5.15
2023-10-19T22:03:58.746Z,7.40
2023-10-19T22:06:33.584Z,5.55
2023-10-19T22:09:08.012Z,4.20
2023-10-19T22:11:41.121Z,6.25
2023-10-19T22:14:14.220Z,4.60
2023-10-19T22:16:47.628Z,4.63
2023-10-19T22:19:20.885Z,5.80
2023-10-19T22:21:55.530Z,5.57
2023-10-19T22:24:29.444Z,6.22
2023-10-19T22:27:02.406Z,5.22
2023-10-19T22:32:09.311Z,5.43
2023-10-19T22:34:43.120Z,5.72
2023-10-19T22:37:17.448Z,8.73
2023-10-19T22:39:50.422Z,7.05
2023-10-19T22:44:57.144Z,4.20
2023-10-19T22:47:31.548Z,8.32
2023-10-19T22:50:05.372Z,6.38
2023-10-19T22:52:40.578Z,6.07
2023-10-19T22:55:14.679Z,5.05
2023-10-19T22:57:52.610Z,10.23
2023-10-19T23:00:28.847Z,5.72
2023-10-19T23:03:01.967Z,9.13
2023-10-19T23:05:35.240Z,6.78
2023-10-19T23:08:10.550Z,5.72
2023-10-19T23:10:46.691Z,8.38
2023-10-19T23:13:21.751Z,7.78
2023-10-19T23:21:51.927Z,7.18
2023-10-19T23:24:30.665Z,8.93
2023-10-19T23:27:05.099Z,7.15
2023-10-19T23:29:45.442Z,8.85
2023-10-19T23:32:19.660Z,7.97
2023-10-19T23:34:53.157Z,8.38
2023-10-19T23:37:26.799Z,10.23
2023-10-19T23:40:02.280Z,10.57
2023-10-19T23:42:35.495Z,9.45
2023-10-19T23:45:12.849Z,9.77
2023-10-19T23:47:46.183Z,11.50
2023-10-19T23:50:19.795Z,9.27
2023-10-19T23:52:54.359Z,10.85
2023-10-19T23:55:29.028Z,8.93
2023-10-19T23:58:01.966Z,8.90
